createdAt,value
2018-10-16T00:01:09.664Z,12.21
2018-10-16T00:03:39.064Z,12.04
2018-10-16T00:06:09.266Z,12.11
2018-10-16T00:08:39.091Z,12.13
2018-10-16T00:11:08.571Z,12.14
2018-10-16T00:13:38.022Z,12.09
2018-10-16T00:16:07.514Z,12.16
2018-10-16T00:18:36.760Z,12.07
2018-10-16T00:21:06.294Z,12.15
2018-10-16T00:23:35.744Z,12.13
2018-10-16T00:26:05.497Z,12.10
2018-10-16T00:28:34.772Z,12.05
2018-10-16T00:31:03.977Z,12.05
2018-10-16T00:33:33.247Z,12.04
2018-10-16T00:36:02.356Z,12.04
2018-10-16T00:38:31.559Z,11.99
2018-10-16T00:41:00.812Z,11.93
2018-10-16T00:43:29.895Z,11.92
2018-10-16T00:45:59.004Z,11.99
2018-10-16T00:48:28.094Z,11.88
2018-10-16T00:50:57.688Z,11.99
2018-10-16T00:53:26.675Z,12.08
2018-10-16T00:55:56.352Z,12.05
2018-10-16T00:58:25.398Z,11.98
2018-10-16T01:00:54.625Z,11.92
2018-10-16T01:03:23.856Z,11.88
2018-10-16T01:05:53.192Z,11.91
2018-10-16T01:08:22.833Z,11.87
2018-10-16T01:10:52.259Z,11.84
2018-10-16T01:13:21.331Z,11.91
2018-10-16T01:15:50.426Z,12.02
2018-10-16T01:18:19.500Z,11.94
2018-10-16T01:20:48.947Z,12.16
2018-10-16T01:23:17.973Z,11.98
2018-10-16T01:25:47.059Z,12.12
2018-10-16T01:28:16.092Z,12.39
2018-10-16T01:30:45.406Z,12.11
2018-10-16T01:33:14.727Z,12.25
2018-10-16T01:35:43.764Z,12.16
2018-10-16T01:38:13.016Z,12.24
2018-10-16T01:40:42.021Z,12.18
2018-10-16T01:43:11.731Z,12.02
2018-10-16T01:45:41.314Z,11.97
2018-10-16T01:48:10.519Z,11.84
2018-10-16T01:50:40.323Z,11.76
2018-10-16T01:53:09.525Z,11.82
2018-10-16T01:55:38.893Z,11.78
2018-10-16T01:58:08.513Z,11.74
2018-10-16T02:00:37.598Z,11.72
2018-10-16T02:03:06.761Z,11.69
2018-10-16T02:05:35.874Z,11.63
2018-10-16T02:08:05.707Z,11.58
2018-10-16T02:10:34.794Z,11.60
2018-10-16T02:13:03.829Z,11.60
2018-10-16T02:15:33.288Z,11.53
2018-10-16T02:18:02.373Z,11.64
2018-10-16T02:20:31.439Z,11.63
2018-10-16T02:23:01.105Z,11.56
2018-10-16T02:25:30.202Z,11.51
2018-10-16T02:27:59.491Z,11.55
2018-10-16T02:30:28.474Z,11.57
2018-10-16T02:32:57.566Z,11.45
2018-10-16T02:35:26.697Z,11.48
2018-10-16T02:37:55.794Z,11.27
2018-10-16T02:40:24.852Z,11.27
2018-10-16T02:42:54.016Z,11.32
2018-10-16T02:45:23.440Z,11.12
2018-10-16T02:47:52.765Z,11.17
2018-10-16T02:50:22.248Z,11.19
2018-10-16T02:52:51.733Z,11.17
2018-10-16T02:55:21.303Z,11.36
2018-10-16T02:57:50.851Z,11.49
2018-10-16T03:00:19.868Z,11.46
2018-10-16T03:02:48.901Z,11.45
2018-10-16T03:05:17.985Z,11.29
2018-10-16T03:07:47.044Z,11.35
2018-10-16T03:10:16.096Z,11.38
2018-10-16T03:12:45.181Z,11.32
2018-10-16T03:15:14.620Z,11.26
2018-10-16T03:17:43.761Z,11.24
2018-10-16T03:20:13.040Z,11.25
2018-10-16T03:22:42.195Z,11.32
2018-10-16T03:25:12.715Z,11.26
2018-10-16T03:27:42.017Z,11.30
2018-10-16T03:30:12.507Z,11.22
2018-10-16T03:32:42.225Z,11.34
2018-10-16T03:35:12.421Z,11.27
2018-10-16T03:37:42.499Z,11.20
2018-10-16T03:40:12.401Z,11.32
2018-10-16T03:42:42.421Z,11.19
2018-10-16T03:45:12.968Z,11.18
2018-10-16T03:47:42.336Z,11.18
2018-10-16T03:50:11.973Z,11.22
2018-10-16T03:52:41.482Z,11.22
2018-10-16T03:55:10.896Z,11.25
2018-10-16T03:57:40.220Z,11.35
2018-10-16T04:00:10.536Z,11.46
2018-10-16T04:02:40.066Z,11.47
2018-10-16T04:05:09.650Z,11.43
2018-10-16T04:07:39.503Z,11.35
2018-10-16T04:10:09.188Z,11.38
2018-10-16T04:12:38.790Z,11.46
2018-10-16T04:15:09.430Z,11.48
2018-10-16T04:17:39.405Z,11.47
2018-10-16T04:20:09.129Z,11.58
2018-10-16T04:22:38.883Z,11.38
2018-10-16T04:25:09.210Z,11.33
2018-10-16T04:27:38.703Z,11.48
2018-10-16T04:30:08.619Z,11.59
2018-10-16T04:32:38.266Z,11.49
2018-10-16T04:35:16.413Z,11.52
2018-10-16T04:37:46.607Z,11.47
2018-10-16T04:40:16.152Z,11.70
2018-10-16T04:42:45.589Z,11.89
2018-10-16T04:45:14.970Z,11.83
2018-10-16T04:47:44.366Z,11.73
2018-10-16T04:50:13.511Z,11.76
2018-10-16T04:52:42.668Z,11.76
2018-10-16T04:55:11.852Z,11.73
2018-10-16T04:57:40.796Z,11.89
2018-10-16T05:00:10.319Z,11.83
2018-10-16T05:02:40.732Z,12.02
2018-10-16T05:05:13.853Z,12.36
2018-10-16T05:07:42.901Z,12.05
2018-10-16T05:10:12.023Z,12.02
2018-10-16T05:12:41.057Z,11.94
2018-10-16T05:15:13.737Z,12.01
2018-10-16T05:17:42.895Z,11.97
2018-10-16T05:20:11.936Z,12.01
2018-10-16T05:22:41.026Z,11.93
2018-10-16T05:25:10.482Z,12.09
2018-10-16T05:27:39.614Z,12.15
2018-10-16T05:30:08.920Z,12.24
2018-10-16T05:32:37.993Z,12.28
2018-10-16T05:35:07.525Z,12.42
2018-10-16T05:37:36.835Z,12.47
2018-10-16T05:40:06.131Z,12.49
2018-10-16T05:42:35.308Z,12.40
2018-10-16T05:45:04.394Z,12.79
2018-10-16T05:47:33.520Z,12.72
2018-10-16T05:50:02.572Z,12.96
2018-10-16T05:52:31.972Z,12.87
2018-10-16T05:55:01.122Z,12.87
2018-10-16T05:57:30.237Z,13.15
2018-10-16T06:00:09.978Z,13.23
2018-10-16T06:02:39.074Z,13.37
2018-10-16T06:05:08.201Z,13.29
2018-10-16T06:07:37.306Z,13.40
2018-10-16T06:10:06.815Z,13.38
2018-10-16T06:12:35.937Z,13.29
2018-10-16T06:15:05.206Z,13.21
2018-10-16T06:17:34.313Z,13.67
2018-10-16T06:20:03.471Z,13.36
2018-10-16T06:22:32.579Z,13.60
2018-10-16T06:25:01.655Z,13.54
2018-10-16T06:27:30.766Z,13.55
2018-10-16T06:30:00.188Z,13.59
2018-10-16T06:32:29.332Z,13.52
2018-10-16T06:34:58.698Z,13.64
2018-10-16T06:37:28.153Z,13.70
2018-10-16T06:39:57.314Z,13.73
2018-10-16T06:42:26.317Z,13.72
2018-10-16T06:44:55.461Z,13.75
2018-10-16T06:47:24.736Z,13.79
2018-10-16T06:49:53.853Z,13.89
2018-10-16T06:52:22.983Z,13.96
2018-10-16T06:54:51.994Z,13.87
2018-10-16T06:57:21.355Z,13.96
2018-10-16T06:59:50.709Z,14.09
2018-10-16T07:02:19.824Z,14.21
2018-10-16T07:04:49.142Z,14.18
2018-10-16T07:07:18.666Z,14.23
2018-10-16T07:09:47.637Z,14.30
2018-10-16T07:12:16.780Z,14.49
2018-10-16T07:14:45.773Z,14.62
2018-10-16T07:17:14.950Z,14.66
2018-10-16T07:19:44.084Z,14.55
2018-10-16T07:22:13.329Z,14.65
2018-10-16T07:24:42.467Z,14.71
2018-10-16T07:27:11.581Z,14.86
2018-10-16T07:29:40.616Z,14.91
2018-10-16T07:32:10.163Z,15.11
2018-10-16T07:34:39.711Z,14.97
2018-10-16T07:37:09.072Z,15.11
2018-10-16T07:39:38.167Z,15.23
2018-10-16T07:42:07.282Z,15.19
2018-10-16T07:44:36.513Z,15.33
2018-10-16T07:47:05.889Z,15.42
2018-10-16T07:49:35.006Z,15.73
2018-10-16T07:52:04.423Z,16.05
2018-10-16T07:54:33.680Z,16.12
2018-10-16T07:57:03.882Z,16.25
2018-10-16T07:59:32.876Z,16.30
2018-10-16T08:02:02.119Z,16.49
2018-10-16T08:04:31.093Z,16.50
2018-10-16T08:07:00.438Z,16.61
2018-10-16T08:09:29.476Z,16.73
2018-10-16T08:11:58.488Z,17.09
2018-10-16T08:14:27.596Z,17.19
2018-10-16T08:16:56.655Z,17.41
2018-10-16T08:19:25.681Z,17.95
2018-10-16T08:21:54.793Z,17.90
2018-10-16T08:24:24.302Z,18.71
2018-10-16T08:26:53.752Z,18.23
2018-10-16T08:29:22.857Z,18.41
2018-10-16T08:31:52.316Z,17.77
2018-10-16T08:34:21.507Z,18.36
2018-10-16T08:36:50.777Z,18.38
2018-10-16T08:39:23.778Z,18.53
2018-10-16T08:42:01.981Z,18.54
2018-10-16T08:44:42.349Z,19.20
2018-10-16T08:47:22.177Z,19.16
2018-10-16T08:50:02.013Z,18.90
2018-10-16T08:52:31.162Z,19.00
2018-10-16T08:55:00.298Z,19.25
2018-10-16T08:57:30.439Z,19.32
2018-10-16T08:59:59.784Z,19.77
2018-10-16T09:02:28.909Z,19.75
2018-10-16T09:04:58.023Z,19.77
2018-10-16T09:07:27.056Z,19.74
2018-10-16T09:09:56.280Z,19.90
2018-10-16T09:12:25.380Z,19.79
2018-10-16T09:14:54.471Z,19.48
2018-10-16T09:17:23.634Z,19.39
2018-10-16T09:19:53.104Z,19.73
2018-10-16T09:22:22.512Z,19.95
2018-10-16T09:24:52.044Z,19.92
2018-10-16T09:27:21.395Z,19.49
2018-10-16T09:29:50.417Z,19.26
2018-10-16T09:32:19.804Z,20.07
2018-10-16T09:34:48.807Z,19.26
2018-10-16T09:37:17.943Z,19.63
2018-10-16T09:39:47.002Z,19.76
2018-10-16T09:42:16.092Z,20.04
2018-10-16T09:44:45.246Z,19.83
2018-10-16T09:47:14.354Z,19.65
2018-10-16T09:49:43.553Z,19.85
2018-10-16T09:52:12.609Z,19.42
2018-10-16T09:54:41.863Z,19.56
2018-10-16T09:57:10.998Z,19.16
2018-10-16T09:59:40.079Z,20.06
2018-10-16T10:02:09.136Z,20.07
2018-10-16T10:04:38.207Z,19.61
2018-10-16T10:07:07.202Z,19.86
2018-10-16T10:09:36.304Z,19.93
2018-10-16T10:12:05.504Z,19.81
2018-10-16T10:14:34.956Z,19.91
2018-10-16T10:17:04.077Z,20.22
2018-10-16T10:19:33.132Z,20.09
2018-10-16T10:22:02.205Z,19.68
2018-10-16T10:24:31.340Z,19.39
2018-10-16T10:27:00.412Z,20.02
2018-10-16T10:29:30.818Z,19.63
2018-10-16T10:31:59.858Z,19.43
2018-10-16T10:34:28.968Z,19.48
2018-10-16T10:36:58.090Z,20.30
2018-10-16T10:39:27.205Z,20.30
2018-10-16T10:41:56.281Z,20.02
2018-10-16T10:44:25.320Z,20.35
2018-10-16T10:46:54.385Z,19.68
2018-10-16T10:49:23.967Z,20.69
2018-10-16T10:51:53.166Z,20.29
2018-10-16T10:54:22.197Z,20.55
2018-10-16T10:56:51.377Z,20.59
2018-10-16T10:59:20.427Z,21.16
2018-10-16T11:01:50.091Z,21.32
2018-10-16T11:04:19.131Z,21.86
2018-10-16T11:06:48.156Z,21.16
2018-10-16T11:09:17.228Z,21.70
2018-10-16T11:11:50.343Z,20.91
2018-10-16T11:14:19.393Z,21.59
2018-10-16T11:16:48.700Z,21.77
2018-10-16T11:19:18.071Z,22.32
2018-10-16T11:21:47.405Z,21.05
2018-10-16T11:24:16.503Z,21.74
2018-10-16T11:26:45.765Z,21.79
2018-10-16T11:29:14.892Z,21.29
2018-10-16T11:31:43.965Z,21.70
2018-10-16T11:34:13.070Z,21.71
2018-10-16T11:36:42.078Z,21.02
2018-10-16T11:39:12.881Z,21.75
2018-10-16T11:41:41.963Z,21.86
2018-10-16T11:44:12.369Z,22.37
2018-10-16T11:46:42.253Z,22.86
2018-10-16T11:49:11.420Z,22.92
2018-10-16T11:51:40.561Z,23.01
2018-10-16T11:54:09.942Z,22.50
2018-10-16T11:56:39.330Z,22.54
2018-10-16T11:59:08.456Z,22.42
2018-10-16T12:01:37.574Z,22.42
2018-10-16T12:04:06.709Z,22.33
2018-10-16T12:06:35.765Z,22.67
2018-10-16T12:09:06.812Z,22.53
2018-10-16T12:11:35.865Z,22.20
2018-10-16T12:14:05.538Z,22.27
2018-10-16T12:16:43.387Z,22.37
2018-10-16T12:19:18.533Z,22.20
2018-10-16T12:21:47.928Z,21.78
2018-10-16T12:24:17.101Z,22.13
2018-10-16T12:26:46.367Z,22.08
2018-10-16T12:29:15.462Z,22.06
2018-10-16T12:31:44.508Z,22.18
2018-10-16T12:34:13.579Z,22.47
2018-10-16T12:36:42.675Z,22.65
2018-10-16T12:39:12.230Z,22.66
2018-10-16T12:41:41.225Z,22.65
2018-10-16T12:44:10.235Z,22.43
2018-10-16T12:46:39.497Z,22.40
2018-10-16T12:49:09.029Z,22.09
2018-10-16T12:51:38.447Z,22.01
2018-10-16T12:54:07.897Z,21.50
2018-10-16T12:56:36.914Z,21.93
2018-10-16T12:59:06.052Z,21.94
2018-10-16T13:01:35.107Z,21.81
2018-10-16T13:04:04.189Z,21.37
2018-10-16T13:06:33.242Z,21.65
2018-10-16T13:09:02.379Z,21.56
2018-10-16T13:11:31.442Z,22.01
2018-10-16T13:14:00.535Z,22.00
2018-10-16T13:16:29.737Z,22.25
2018-10-16T13:18:58.934Z,22.32
2018-10-16T13:21:27.956Z,22.34
2018-10-16T13:23:57.080Z,22.07
2018-10-16T13:26:26.257Z,21.75
2018-10-16T13:28:55.342Z,21.55
2018-10-16T13:31:24.412Z,21.54
2018-10-16T13:33:53.575Z,21.23
2018-10-16T13:36:22.615Z,21.65
2018-10-16T13:38:52.046Z,21.76
2018-10-16T13:41:21.506Z,22.19
2018-10-16T13:43:50.961Z,21.82
2018-10-16T13:46:20.017Z,21.74
2018-10-16T13:48:49.072Z,21.66
2018-10-16T13:51:18.202Z,21.49
2018-10-16T13:53:47.265Z,21.08
2018-10-16T13:56:16.489Z,21.26
2018-10-16T13:58:45.502Z,20.53
2018-10-16T14:01:15.005Z,20.94
2018-10-16T14:03:44.013Z,20.97
2018-10-16T14:06:13.096Z,20.81
2018-10-16T14:08:43.388Z,21.17
2018-10-16T14:11:12.637Z,21.03
2018-10-16T14:13:42.122Z,20.98
2018-10-16T14:16:11.496Z,21.27
2018-10-16T14:18:40.507Z,20.70
2018-10-16T14:21:09.798Z,20.52
2018-10-16T14:23:38.831Z,20.85
2018-10-16T14:26:08.384Z,20.29
2018-10-16T14:28:37.370Z,20.23
2018-10-16T14:31:07.386Z,20.34
2018-10-16T14:33:36.473Z,20.80
2018-10-16T14:36:05.722Z,20.19
2018-10-16T14:38:35.321Z,20.33
2018-10-16T14:41:04.882Z,20.30
2018-10-16T14:43:34.026Z,20.45
2018-10-16T14:46:03.904Z,20.28
2018-10-16T14:48:32.960Z,20.12
2018-10-16T14:51:02.012Z,19.97
2018-10-16T14:53:31.038Z,20.08
2018-10-16T14:56:00.197Z,20.10
2018-10-16T14:58:29.388Z,19.81
2018-10-16T15:00:58.452Z,19.37
2018-10-16T15:03:27.556Z,19.28
2018-10-16T15:05:56.715Z,19.76
2018-10-16T15:08:25.758Z,19.34
2018-10-16T15:10:54.786Z,19.67
2018-10-16T15:13:24.017Z,19.59
2018-10-16T15:15:53.107Z,19.20
2018-10-16T15:18:22.277Z,19.25
2018-10-16T15:20:51.851Z,19.23
2018-10-16T15:23:20.943Z,19.11
2018-10-16T15:25:50.060Z,18.80
2018-10-16T15:28:19.162Z,18.64
2018-10-16T15:30:48.508Z,18.30
2018-10-16T15:33:17.826Z,18.21
2018-10-16T15:35:46.810Z,17.99
2018-10-16T15:38:16.053Z,17.86
2018-10-16T15:40:45.157Z,17.81
2018-10-16T15:43:14.189Z,17.69
2018-10-16T15:45:43.268Z,17.62
2018-10-16T15:48:12.531Z,17.56
2018-10-16T15:50:41.632Z,17.62
2018-10-16T15:53:10.832Z,17.51
2018-10-16T15:55:39.993Z,17.52
2018-10-16T15:58:09.168Z,17.55
2018-10-16T16:00:38.216Z,17.42
2018-10-16T16:03:07.346Z,17.38
2018-10-16T16:05:36.604Z,17.55
2018-10-16T16:08:06.047Z,18.16
2018-10-16T16:10:35.272Z,18.27
2018-10-16T16:13:08.822Z,18.42
2018-10-16T16:15:37.876Z,18.89
2018-10-16T16:18:07.143Z,18.86
2018-10-16T16:20:36.364Z,18.20
2018-10-16T16:23:05.445Z,18.23
2018-10-16T16:25:34.613Z,18.63
2018-10-16T16:28:03.746Z,18.28
2018-10-16T16:30:32.774Z,18.60
2018-10-16T16:33:01.834Z,18.25
2018-10-16T16:35:30.997Z,18.30
2018-10-16T16:38:00.140Z,18.56
2018-10-16T16:40:29.280Z,18.46
2018-10-16T16:42:58.372Z,18.46
2018-10-16T16:45:27.447Z,18.25
2018-10-16T16:47:56.547Z,18.40
2018-10-16T16:50:25.814Z,18.43
2018-10-16T16:52:54.957Z,18.30
2018-10-16T16:55:24.023Z,18.26
2018-10-16T16:57:53.158Z,18.08
2018-10-16T17:00:22.282Z,18.15
2018-10-16T17:02:51.775Z,18.26
2018-10-16T17:05:21.142Z,17.98
2018-10-16T17:07:50.240Z,17.93
2018-10-16T17:10:19.645Z,18.07
2018-10-16T17:12:49.054Z,17.80
2018-10-16T17:15:18.076Z,18.03
2018-10-16T17:17:47.699Z,18.24
2018-10-16T17:20:16.674Z,18.20
2018-10-16T17:22:45.719Z,17.95
2018-10-16T17:25:15.667Z,17.92
2018-10-16T17:27:45.265Z,17.56
2018-10-16T17:30:15.960Z,17.43
2018-10-16T17:32:45.221Z,17.45
2018-10-16T17:35:14.670Z,17.38
2018-10-16T17:37:44.005Z,17.30
2018-10-16T17:40:14.212Z,17.16
2018-10-16T17:42:43.586Z,17.25
2018-10-16T17:45:14.127Z,17.04
2018-10-16T17:47:43.608Z,16.90
2018-10-16T17:50:14.803Z,16.87
2018-10-16T17:52:43.836Z,16.70
2018-10-16T17:55:13.671Z,16.54
2018-10-16T17:57:43.064Z,16.45
2018-10-16T18:00:14.745Z,16.42
2018-10-16T18:02:44.439Z,16.36
2018-10-16T18:05:14.021Z,16.36
2018-10-16T18:07:44.356Z,16.31
2018-10-16T18:10:13.513Z,16.28
2018-10-16T18:12:42.569Z,16.23
2018-10-16T18:15:13.006Z,16.21
2018-10-16T18:17:42.757Z,16.17
2018-10-16T18:20:13.552Z,16.11
2018-10-16T18:22:42.790Z,16.25
2018-10-16T18:25:12.186Z,16.15
2018-10-16T18:27:41.677Z,16.35
2018-10-16T18:30:11.224Z,16.35
2018-10-16T18:32:40.580Z,16.23
2018-10-16T18:35:10.144Z,16.40
2018-10-16T18:37:39.675Z,16.76
2018-10-16T18:40:09.966Z,16.72
2018-10-16T18:42:39.170Z,16.83
2018-10-16T18:45:09.201Z,16.95
2018-10-16T18:47:38.306Z,16.84
2018-10-16T18:50:08.296Z,16.68
2018-10-16T18:52:37.378Z,16.71
2018-10-16T18:55:08.265Z,16.68
2018-10-16T18:57:37.568Z,16.45
2018-10-16T19:00:08.266Z,16.23
2018-10-16T19:02:37.346Z,16.29
2018-10-16T19:05:07.952Z,16.15
2018-10-16T19:07:37.065Z,16.18
2018-10-16T19:10:06.720Z,16.04
2018-10-16T19:12:36.503Z,16.13
2018-10-16T19:15:06.352Z,16.02
2018-10-16T19:17:35.655Z,16.02
2018-10-16T19:20:05.063Z,16.04
2018-10-16T19:22:34.503Z,16.05
2018-10-16T19:25:03.828Z,16.07
2018-10-16T19:27:32.989Z,16.18
2018-10-16T19:30:02.219Z,16.15
2018-10-16T19:32:31.233Z,16.05
2018-10-16T19:35:00.637Z,16.05
2018-10-16T19:37:29.697Z,16.22
2018-10-16T19:39:58.849Z,16.00
2018-10-16T19:42:28.204Z,15.91
2018-10-16T19:44:57.612Z,15.83
2018-10-16T19:47:26.704Z,15.70
2018-10-16T19:49:55.853Z,15.93
2018-10-16T19:52:25.472Z,15.68
2018-10-16T19:54:54.712Z,15.67
2018-10-16T19:57:23.748Z,15.70
2018-10-16T19:59:52.899Z,15.62
2018-10-16T20:02:21.977Z,15.61
2018-10-16T20:04:51.301Z,15.56
2018-10-16T20:07:20.511Z,15.61
2018-10-16T20:09:49.990Z,15.62
2018-10-16T20:12:19.116Z,15.70
2018-10-16T20:14:48.657Z,15.81
2018-10-16T20:17:17.672Z,15.93
2018-10-16T20:19:47.024Z,15.98
2018-10-16T20:22:17.705Z,15.97
2018-10-16T20:24:47.167Z,15.95
2018-10-16T20:27:16.472Z,15.86
2018-10-16T20:29:45.703Z,15.92
2018-10-16T20:32:14.821Z,15.86
2018-10-16T20:34:43.881Z,15.87
2018-10-16T20:37:12.978Z,15.79
2018-10-16T20:39:42.438Z,15.75
2018-10-16T20:42:11.664Z,15.78
2018-10-16T20:44:40.956Z,15.83
2018-10-16T20:47:10.899Z,15.80
2018-10-16T20:49:39.973Z,15.81
2018-10-16T20:52:08.969Z,15.84
2018-10-16T20:54:38.020Z,15.96
2018-10-16T20:57:07.761Z,15.90
2018-10-16T20:59:36.902Z,15.61
2018-10-16T21:02:06.172Z,15.34
2018-10-16T21:04:35.183Z,15.19
2018-10-16T21:07:04.418Z,15.04
2018-10-16T21:09:33.172Z,14.91
2018-10-16T21:12:02.486Z,14.81
2018-10-16T21:14:31.877Z,14.70
2018-10-16T21:17:01.366Z,14.59
2018-10-16T21:19:30.736Z,14.54
2018-10-16T21:21:59.932Z,14.47
2018-10-16T21:24:29.238Z,14.43
2018-10-16T21:27:04.950Z,14.34
2018-10-16T21:29:34.087Z,14.27
2018-10-16T21:32:03.041Z,14.23
2018-10-16T21:34:32.036Z,14.12
2018-10-16T21:37:01.031Z,14.04
2018-10-16T21:39:29.968Z,14.03
2018-10-16T21:41:59.217Z,14.00
2018-10-16T21:44:28.754Z,13.99
2018-10-16T21:46:57.757Z,13.93
2018-10-16T21:49:27.254Z,13.86
2018-10-16T21:51:56.573Z,13.88
2018-10-16T21:54:25.453Z,13.84
2018-10-16T21:56:54.831Z,13.82
2018-10-16T21:59:24.199Z,13.75
2018-10-16T22:01:58.547Z,13.74
2018-10-16T22:04:27.944Z,13.64
2018-10-16T22:06:57.184Z,13.72
2018-10-16T22:09:26.233Z,13.72
2018-10-16T22:11:55.422Z,13.69
2018-10-16T22:14:24.695Z,13.60
2018-10-16T22:16:54.376Z,13.56
2018-10-16T22:19:23.715Z,13.56
2018-10-16T22:21:52.872Z,13.62
2018-10-16T22:24:22.241Z,13.61
2018-10-16T22:26:51.478Z,13.59
2018-10-16T22:29:20.851Z,13.63
2018-10-16T22:31:50.223Z,13.73
2018-10-16T22:34:19.485Z,13.72
2018-10-16T22:36:49.079Z,13.75
2018-10-16T22:39:18.444Z,13.69
2018-10-16T22:41:47.447Z,13.71
2018-10-16T22:44:16.440Z,13.54
2018-10-16T22:46:45.479Z,13.45
2018-10-16T22:49:14.877Z,13.55
2018-10-16T22:51:44.199Z,13.50
2018-10-16T22:54:13.455Z,13.38
2018-10-16T22:56:42.561Z,13.31
2018-10-16T22:59:11.553Z,13.22
2018-10-16T23:01:40.811Z,13.18
2018-10-16T23:04:09.719Z,13.16
2018-10-16T23:06:39.040Z,13.25
2018-10-16T23:09:09.445Z,13.26
2018-10-16T23:11:38.504Z,13.20
2018-10-16T23:14:07.683Z,13.20
2018-10-16T23:16:36.702Z,13.14
2018-10-16T23:19:06.098Z,13.25
2018-10-16T23:21:35.019Z,13.13
2018-10-16T23:24:04.163Z,13.13
2018-10-16T23:26:33.451Z,13.05
2018-10-16T23:29:02.880Z,13.00
2018-10-16T23:31:32.319Z,12.96
2018-10-16T23:34:01.743Z,12.89
2018-10-16T23:36:31.116Z,12.77
2018-10-16T23:39:00.312Z,12.90
2018-10-16T23:41:29.413Z,12.86
2018-10-16T23:43:58.825Z,12.74
2018-10-16T23:46:27.901Z,12.78
2018-10-16T23:48:57.252Z,12.72
2018-10-16T23:51:26.315Z,12.70
2018-10-16T23:53:55.745Z,12.60
2018-10-16T23:56:24.826Z,12.65
2018-10-16T23:58:53.972Z,12.64
